Time;durP1;ratioP1;P1;durP2;ratioP2;P2;SDS_P1;SDS_P2;PMS_P1;PMS_P2;Temp;Humidity;BMP_temperature;BMP_pressure;BME280_temperature;BME280_humidity;BME280_pressure;Samples;Min_cycle;Max_cycle;Signal;HPM_P1;HPM_P2
2022/05/13 00:02:12;;;;;;;9.65;2.80;;;;;;;11.95;63.42;101575.16;3589342;39;20055;-63
2022/05/13 00:04:39;;;;;;;13.02;3.17;;;;;;;12.06;64.05;101599.69;3587370;40;20052;-63
2022/05/13 00:07:06;;;;;;;16.70;3.03;;;;;;;12.03;63.81;101590.91;3588150;39;20157;-61
2022/05/13 00:12:18;;;;;;;13.73;3.40;;;;;;;11.99;64.40;101578.56;3589888;40;20059;-63
2022/05/13 00:14:45;;;;;;;10.88;2.80;;;;;;;12.08;64.32;101587.00;3589357;39;20052;-62
2022/05/13 00:17:11;;;;;;;11.77;3.40;;;;;;;12.08;64.26;101594.19;3588900;40;20054;-62
2022/05/13 00:19:38;;;;;;;12.52;3.60;;;;;;;12.06;64.45;101585.34;3591019;39;20048;-62
2022/05/13 00:22:04;;;;;;;8.13;3.20;;;;;;;12.05;64.49;101586.28;3587383;39;20486;-62
2022/05/13 00:24:30;;;;;;;9.90;3.28;;;;;;;12.06;65.00;101594.31;3587152;40;20053;-63
2022/05/13 00:26:56;;;;;;;8.77;3.22;;;;;;;12.03;64.56;101596.31;3590444;39;20316;-63
2022/05/13 00:29:22;;;;;;;12.98;3.78;;;;;;;12.05;64.57;101597.06;3586203;40;20062;-63
2022/05/13 00:31:48;;;;;;;8.63;3.13;;;;;;;12.02;65.45;101590.06;3587121;40;20056;-63
2022/05/13 00:34:14;;;;;;;14.38;3.40;;;;;;;11.96;65.69;101586.84;3585339;40;20080;-63
2022/05/13 00:36:40;;;;;;;13.80;3.45;;;;;;;11.94;66.29;101591.44;3589310;39;20052;-63
2022/05/13 00:39:07;;;;;;;14.73;3.78;;;;;;;11.94;65.85;101596.81;3586682;40;20713;-62
2022/05/13 00:41:33;;;;;;;10.68;3.20;;;;;;;11.91;66.14;101586.19;3588161;40;20579;-63
2022/05/13 00:44:00;;;;;;;8.82;3.40;;;;;;;11.87;65.56;101587.34;3589125;39;20060;-63
2022/05/13 00:46:28;;;;;;;13.20;3.70;;;;;;;11.85;66.11;101592.78;3584734;40;20122;-63
2022/05/13 00:48:58;;;;;;;9.85;3.47;;;;;;;11.72;65.75;101571.00;3586188;40;20048;-63
2022/05/13 00:51:33;;;;;;;11.02;3.30;;;;;;;11.81;65.51;101589.38;3585449;40;20049;-64
2022/05/13 00:53:59;;;;;;;7.85;2.88;;;;;;;11.74;64.15;101585.28;3590239;39;20051;-63
2022/05/13 00:56:25;;;;;;;8.55;3.13;;;;;;;11.74;64.52;101579.88;3588046;40;20417;-63
2022/05/13 00:58:57;;;;;;;9.55;2.90;;;;;;;11.75;63.28;101592.38;3587074;40;20041;-64
2022/05/13 01:01:23;;;;;;;9.02;2.90;;;;;;;11.70;62.97;101581.00;3585509;40;20066;-63
2022/05/13 01:03:51;;;;;;;7.43;2.72;;;;;;;11.69;62.30;101591.84;3588238;40;20059;-63
2022/05/13 01:06:23;;;;;;;8.50;2.40;;;;;;;11.68;62.11;101585.59;3586640;40;20052;-62
2022/05/13 01:08:50;;;;;;;9.40;2.53;;;;;;;11.68;61.78;101591.00;3589520;40;20048;-62
2022/05/13 01:11:23;;;;;;;5.88;2.35;;;;;;;11.68;61.71;101587.44;3588961;39;20044;-63
2022/05/13 01:14:00;;;;;;;7.68;1.95;;;;;;;11.60;61.65;101586.00;3587375;40;20060;-63
2022/05/13 01:16:27;;;;;;;6.78;2.22;;;;;;;11.56;61.60;101578.19;3586838;40;20060;-63
2022/05/13 01:18:52;;;;;;;5.40;2.13;;;;;;;11.60;61.72;101587.84;3590556;40;20113;-63
2022/05/13 01:21:29;;;;;;;6.05;2.10;;;;;;;11.59;61.23;101580.72;3585980;39;20048;-63
2022/05/13 01:23:54;;;;;;;5.45;2.38;;;;;;;11.58;61.95;101581.69;3587062;39;20048;-63
2022/05/13 01:26:29;;;;;;;4.60;2.05;;;;;;;11.61;61.69;101578.81;3590585;39;20063;-64
2022/05/13 01:28:57;;;;;;;4.22;1.98;;;;;;;11.62;60.79;101584.13;3588923;39;20054;-63
2022/05/13 01:31:24;;;;;;;4.50;1.77;;;;;;;11.63;61.73;101574.19;3588353;39;20391;-63
2022/05/13 01:33:50;;;;;;;6.15;1.90;;;;;;;11.60;61.82;101579.75;3586579;40;20373;-63
2022/05/13 01:36:16;;;;;;;7.00;2.05;;;;;;;11.62;61.14;101581.41;3588652;40;20044;-64
2022/05/13 01:38:43;;;;;;;8.23;2.30;;;;;;;11.61;61.30;101595.84;3586242;39;20052;-62
2022/05/13 01:41:13;;;;;;;7.32;2.00;;;;;;;11.59;61.55;101586.09;3585161;40;20397;-62
2022/05/13 01:43:43;;;;;;;7.38;1.98;;;;;;;11.58;61.65;101589.75;3589083;39;20102;-63
2022/05/13 01:46:10;;;;;;;6.53;1.88;;;;;;;11.59;61.79;101592.34;3585145;40;20091;-63
2022/05/13 01:48:37;;;;;;;6.15;1.77;;;;;;;11.62;61.68;101588.63;3585133;40;20410;-63
2022/05/13 01:51:04;;;;;;;7.07;2.03;;;;;;;11.68;61.31;101593.69;3586084;39;20068;-62
2022/05/13 01:53:30;;;;;;;9.00;1.98;;;;;;;11.73;61.08;101596.13;3586576;40;20055;-62
2022/05/13 01:55:56;;;;;;;6.80;1.98;;;;;;;11.76;61.04;101586.03;3588275;40;20369;-63
2022/05/13 01:58:25;;;;;;;5.50;2.10;;;;;;;11.78;61.15;101586.84;3585153;40;20310;-63
2022/05/13 02:00:54;;;;;;;5.68;2.10;;;;;;;11.80;61.25;101584.06;3591103;39;20480;-63
2022/05/13 02:06:07;;;;;;;5.60;1.85;;;;;;;11.84;60.93;101583.84;3585517;40;20829;-62
2022/05/13 02:08:33;;;;;;;4.72;2.03;;;;;;;11.88;60.54;101580.97;3587927;39;20048;-63
2022/05/13 02:11:00;;;;;;;9.63;2.45;;;;;;;11.87;61.39;101596.28;3589840;40;20052;-63
2022/05/13 02:13:27;;;;;;;8.68;2.20;;;;;;;11.64;61.35;101549.03;3587156;39;20047;-63
2022/05/13 02:15:53;;;;;;;9.82;2.17;;;;;;;11.90;61.52;101590.72;3585440;39;20067;-63
2022/05/13 02:18:20;;;;;;;6.07;1.88;;;;;;;11.92;61.55;101590.63;3587885;39;20056;-63
2022/05/13 02:20:47;;;;;;;6.72;2.30;;;;;;;11.94;61.42;101583.34;3586248;40;20059;-64
2022/05/13 02:23:14;;;;;;;8.98;2.00;;;;;;;11.96;61.41;101592.22;3588964;39;20118;-63
2022/05/13 02:25:42;;;;;;;9.73;2.38;;;;;;;11.93;61.81;101581.63;3595168;39;20083;-62
2022/05/13 02:28:08;;;;;;;7.05;1.95;;;;;;;11.93;62.22;101578.91;3596309;39;20048;-62
2022/05/13 02:30:34;;;;;;;4.93;1.88;;;;;;;11.90;61.90;101582.66;3586389;40;20129;-63
2022/05/13 02:33:01;;;;;;;6.60;2.35;;;;;;;11.88;61.67;101581.84;3586104;39;20059;-62
2022/05/13 02:35:27;;;;;;;11.38;2.30;;;;;;;11.90;61.80;101589.88;3590646;39;20044;-62
2022/05/13 02:37:53;;;;;;;12.13;2.42;;;;;;;11.91;62.44;101575.44;3587148;39;20074;-63
2022/05/13 02:40:21;;;;;;;9.45;2.30;;;;;;;11.94;62.31;101586.03;3586060;40;20055;-62
2022/05/13 02:42:47;;;;;;;5.65;1.90;;;;;;;11.92;61.96;101582.53;3587377;40;20060;-63
2022/05/13 02:45:12;;;;;;;8.07;2.28;;;;;;;11.93;62.16;101582.47;3586804;40;20155;-65
2022/05/13 02:47:40;;;;;;;11.18;2.47;;;;;;;11.95;62.65;101585.94;3586744;40;20295;-63
2022/05/13 02:50:18;;;;;;;8.38;2.97;;;;;;;11.94;62.58;101576.13;3585801;40;20063;-63
2022/05/13 02:52:44;;;;;;;9.35;2.40;;;;;;;11.96;63.39;101584.13;3587962;39;20126;-62
2022/05/13 02:55:10;;;;;;;6.35;2.83;;;;;;;11.97;63.43;101584.03;3588865;40;20092;-63
2022/05/13 02:57:36;;;;;;;14.13;3.00;;;;;;;12.03;63.38;101572.06;3586916;40;20071;-63
2022/05/13 03:00:04;;;;;;;9.65;2.72;;;;;;;11.97;62.97;101567.00;3586087;39;20522;-62
2022/05/13 03:02:31;;;;;;;7.18;2.80;;;;;;;11.96;64.07;101566.13;3587392;40;20540;-63
2022/05/13 03:04:56;;;;;;;11.23;2.88;;;;;;;11.96;64.10;101573.34;3584950;39;20121;-63
2022/05/13 03:07:22;;;;;;;11.32;3.58;;;;;;;11.98;63.74;101574.97;3586315;40;20051;-63
2022/05/13 03:09:48;;;;;;;13.48;4.13;;;;;;;11.99;63.91;101579.44;3585302;39;20053;-63
2022/05/13 03:12:13;;;;;;;10.02;3.10;;;;;;;12.01;64.01;101566.72;3586574;40;20056;-63
2022/05/13 03:14:39;;;;;;;12.52;3.50;;;;;;;12.02;64.49;101586.47;3587409;40;20052;-62
2022/05/13 03:17:06;;;;;;;9.40;4.20;;;;;;;11.86;64.63;101546.03;3585328;39;20068;-63
2022/05/13 03:19:32;;;;;;;14.65;4.82;;;;;;;12.05;64.49;101575.50;3588639;40;20107;-62
2022/05/13 03:21:57;;;;;;;12.00;3.67;;;;;;;12.07;64.28;101581.69;3589614;39;20055;-64
2022/05/13 03:24:23;;;;;;;14.57;4.22;;;;;;;12.09;65.17;101571.72;3588809;40;20072;-62
2022/05/13 03:26:49;;;;;;;15.80;4.35;;;;;;;12.11;64.66;101575.16;3588962;39;20306;-62
2022/05/13 03:29:15;;;;;;;10.25;3.90;;;;;;;12.06;64.46;101570.06;3586190;40;20047;-64
2022/05/13 03:31:41;;;;;;;14.68;4.07;;;;;;;12.07;64.77;101574.47;3588774;40;20079;-63
2022/05/13 03:34:07;;;;;;;12.20;3.22;;;;;;;12.06;64.16;101553.00;3588955;39;20128;-63
2022/05/13 03:36:32;;;;;;;8.82;3.70;;;;;;;12.06;65.11;101561.09;3590350;40;20048;-62
2022/05/13 03:38:58;;;;;;;15.20;3.78;;;;;;;12.01;64.54;101572.13;3586018;40;20082;-64
2022/05/13 03:41:24;;;;;;;10.77;3.30;;;;;;;11.97;65.34;101569.69;3585832;40;20121;-62
2022/05/13 03:43:50;;;;;;;13.93;3.90;;;;;;;11.96;65.50;101559.88;3592697;39;20334;-64
2022/05/13 03:46:15;;;;;;;11.48;3.67;;;;;;;11.88;65.20;101562.13;3586996;40;20120;-63
2022/05/13 03:48:41;;;;;;;10.70;3.63;;;;;;;11.90;65.37;101565.63;3585614;40;20048;-63
2022/05/13 03:51:07;;;;;;;11.70;3.58;;;;;;;11.87;66.05;101565.78;3586289;39;20047;-64
2022/05/13 03:53:33;;;;;;;12.50;3.65;;;;;;;11.83;65.80;101568.63;3587824;40;20094;-63
2022/05/13 03:55:59;;;;;;;11.18;3.78;;;;;;;11.81;66.04;101565.13;3586890;39;20059;-62
2022/05/13 03:58:25;;;;;;;15.43;4.00;;;;;;;11.79;66.00;101572.41;3589313;40;20480;-63
2022/05/13 04:00:51;;;;;;;9.23;4.15;;;;;;;11.78;66.28;101575.19;3592880;39;20056;-63
2022/05/13 04:03:19;;;;;;;9.90;3.17;;;;;;;11.75;67.11;101570.84;3588072;40;20048;-64
2022/05/13 04:11:14;;;;;;;10.43;3.72;;;;;;;11.62;66.86;101567.94;3587651;40;20051;-63
2022/05/13 04:16:24;;;;;;;11.52;3.65;;;;;;;11.64;67.14;101573.28;3588352;39;20298;-63
2022/05/13 04:18:51;;;;;;;10.48;3.80;;;;;;;11.61;67.27;101576.13;3589483;39;20039;-63
2022/05/13 04:21:28;;;;;;;9.45;3.60;;;;;;;11.62;67.77;101572.47;3586616;39;20060;-62
2022/05/13 04:23:58;;;;;;;11.05;4.13;;;;;;;11.62;67.90;101572.47;3584855;40;20060;-61
2022/05/13 04:26:25;;;;;;;16.30;4.55;;;;;;;11.60;67.29;101572.53;3591078;39;20048;-61
2022/05/13 04:28:53;;;;;;;12.95;3.80;;;;;;;11.62;67.77;101569.78;3589489;40;20148;-62
2022/05/13 04:31:29;;;;;;;20.83;4.38;;;;;;;11.62;67.29;101580.56;3588071;40;20194;-62
2022/05/13 04:33:56;;;;;;;21.38;4.30;;;;;;;11.63;68.20;101577.75;3591955;39;20052;-61
2022/05/13 04:36:23;;;;;;;15.10;4.32;;;;;;;11.67;67.45;101589.25;3587390;40;20055;-61
2022/05/13 04:38:51;;;;;;;13.63;5.82;;;;;;;11.70;67.12;101583.69;3590992;40;20131;-61
2022/05/13 04:44:04;;;;;;;13.20;4.00;;;;;;;11.73;68.13;101586.22;3588429;40;20109;-62
2022/05/13 04:46:30;;;;;;;14.05;4.50;;;;;;;11.74;67.28;101598.75;3587459;39;20051;-62
2022/05/13 04:48:57;;;;;;;10.55;3.88;;;;;;;11.74;67.46;101596.06;3591741;39;20044;-63
2022/05/13 04:51:23;;;;;;;10.85;4.05;;;;;;;11.78;68.01;101600.31;3592034;39;20051;-62
2022/05/13 04:53:53;;;;;;;9.60;3.95;;;;;;;11.81;67.73;101602.84;3590360;40;20303;-62
2022/05/13 04:56:22;;;;;;;13.10;4.10;;;;;;;11.90;67.46;101603.34;3590160;40;20759;-62
2022/05/13 04:58:48;;;;;;;10.75;3.97;;;;;;;11.92;67.90;101604.09;3586358;40;20051;-62
2022/05/13 05:03:44;;;;;;;12.20;4.20;;;;;;;12.02;67.29;101606.22;3590101;39;20061;-65
2022/05/13 05:06:12;;;;;;;13.82;4.20;;;;;;;12.08;66.99;101613.97;3595807;39;20056;-62
2022/05/13 05:08:40;;;;;;;11.75;4.47;;;;;;;12.12;67.02;101625.44;3592319;39;20150;-63
2022/05/13 05:11:08;;;;;;;9.43;3.75;;;;;;;12.17;66.88;101620.66;3585694;39;20402;-63
2022/05/13 05:13:39;;;;;;;13.90;4.10;;;;;;;12.07;66.75;101596.03;3589851;40;20048;-61
2022/05/13 05:16:06;;;;;;;11.45;4.10;;;;;;;12.26;66.15;101620.13;3587945;40;20379;-63
2022/05/13 05:18:36;;;;;;;9.07;3.90;;;;;;;12.34;66.55;101621.53;3586774;40;20056;-63
2022/05/13 05:21:05;;;;;;;11.98;4.05;;;;;;;12.37;65.75;101626.75;3585378;40;20422;-62
2022/05/13 05:23:34;;;;;;;11.88;3.95;;;;;;;12.43;65.83;101632.69;3589296;39;20060;-62
2022/05/13 05:26:01;;;;;;;11.13;4.78;;;;;;;12.45;66.30;101628.06;3590494;39;20512;-63
2022/05/13 05:28:28;;;;;;;11.98;4.05;;;;;;;12.37;66.08;101611.47;3586033;40;20102;-63
2022/05/13 05:30:56;;;;;;;13.45;3.75;;;;;;;12.54;65.97;101629.38;3585659;40;20402;-63
2022/05/13 05:33:22;;;;;;;10.45;4.00;;;;;;;12.60;65.19;101645.19;3589677;40;20071;-64
2022/05/13 05:35:48;;;;;;;13.32;3.83;;;;;;;12.59;65.76;101640.78;3591501;39;20070;-62
2022/05/13 05:38:14;;;;;;;11.52;4.13;;;;;;;12.69;65.08;101658.16;3586343;39;20056;-62
2022/05/13 05:40:40;;;;;;;14.40;4.07;;;;;;;12.71;65.22;101656.22;3593963;39;20067;-62
2022/05/13 05:43:16;;;;;;;13.30;4.32;;;;;;;12.81;65.29;101663.78;3589883;39;20055;-63
2022/05/13 05:45:43;;;;;;;15.13;4.25;;;;;;;12.12;65.12;101541.03;3587948;39;20056;-65
2022/05/13 05:48:14;;;;;;;11.82;3.80;;;;;;;12.92;64.86;101666.75;3584099;40;20056;-63
2022/05/13 05:50:39;;;;;;;9.95;4.13;;;;;;;12.94;65.19;101665.72;3588343;39;20145;-64
2022/05/13 05:53:05;;;;;;;16.38;4.32;;;;;;;12.98;65.03;101667.25;3588963;40;20370;-63
2022/05/13 05:58:18;;;;;;;14.25;4.25;;;;;;;13.08;64.92;101683.78;3588646;40;20054;-63
2022/05/13 06:00:49;;;;;;;16.00;4.15;;;;;;;13.17;64.26;101680.53;3589971;39;20058;-64
2022/05/13 06:03:17;;;;;;;12.30;3.80;;;;;;;13.26;64.35;101683.66;3587918;39;20376;-63
2022/05/13 06:05:53;;;;;;;13.32;3.90;;;;;;;13.34;64.51;101684.09;3588696;39;20052;-63
2022/05/13 06:08:19;;;;;;;10.05;3.72;;;;;;;13.38;64.37;101681.16;3589693;40;20072;-62
2022/05/13 06:10:44;;;;;;;13.90;4.30;;;;;;;13.37;64.36;101665.00;3589308;40;20052;-62
2022/05/13 06:13:11;;;;;;;12.73;4.05;;;;;;;13.49;63.83;101683.19;3589436;39;20568;-63
2022/05/13 06:15:37;;;;;;;13.65;4.68;;;;;;;13.60;63.67;101686.09;3588178;40;20374;-64
2022/05/13 06:18:03;;;;;;;11.55;4.07;;;;;;;13.67;63.41;101698.28;3588784;39;20062;-63
2022/05/13 06:20:31;;;;;;;10.55;4.28;;;;;;;13.78;63.44;101699.47;3585487;40;20073;-64
2022/05/13 06:22:57;;;;;;;15.30;5.03;;;;;;;13.88;63.22;101689.81;3585936;40;20430;-64
2022/05/13 06:25:24;;;;;;;12.50;4.30;;;;;;;13.91;62.84;101678.81;3590271;40;20048;-63
2022/05/13 06:27:53;;;;;;;15.00;4.28;;;;;;;14.12;63.14;101692.84;3590372;40;20089;-62
2022/05/13 06:30:27;;;;;;;16.17;4.45;;;;;;;14.16;62.69;101689.81;3588688;40;20070;-63
2022/05/13 06:32:55;;;;;;;11.02;4.28;;;;;;;14.32;62.17;101691.56;3592272;39;20063;-64
2022/05/13 06:35:25;;;;;;;8.52;4.35;;;;;;;14.37;62.24;101705.66;3589403;39;20056;-64
2022/05/13 06:37:51;;;;;;;12.90;4.22;;;;;;;14.50;62.66;101701.22;3594180;39;20039;-63
2022/05/13 06:40:18;;;;;;;14.55;4.55;;;;;;;14.27;62.19;101645.00;3586172;40;20064;-62
2022/05/13 06:42:43;;;;;;;14.68;4.38;;;;;;;14.71;61.46;101704.38;3588151;40;20117;-63
2022/05/13 06:45:10;;;;;;;14.68;4.50;;;;;;;14.80;61.10;101714.59;3591329;39;20449;-63
2022/05/13 06:47:36;;;;;;;14.23;4.63;;;;;;;14.76;61.08;101698.69;3590679;39;20044;-63
2022/05/13 06:50:08;;;;;;;8.75;4.00;;;;;;;14.87;61.29;101717.78;3589666;39;20099;-63
2022/05/13 06:52:33;;;;;;;12.70;4.88;;;;;;;14.86;60.72;101713.34;3584047;40;20040;-63
2022/05/13 06:54:59;;;;;;;10.35;4.13;;;;;;;15.01;61.21;101723.16;3585316;40;20048;-63
2022/05/13 06:57:25;;;;;;;16.08;4.78;;;;;;;14.67;60.77;101661.38;3587841;40;20052;-63
2022/05/13 06:59:50;;;;;;;12.40;4.30;;;;;;;15.12;60.92;101729.69;3587141;39;20064;-63
2022/05/13 07:02:17;;;;;;;15.30;4.75;;;;;;;15.08;61.05;101700.13;3584018;39;20102;-64
2022/05/13 07:04:45;;;;;;;17.45;4.55;;;;;;;15.35;60.80;101726.34;3586607;40;20063;-64
2022/05/13 07:07:12;;;;;;;12.43;4.18;;;;;;;15.31;60.26;101701.25;3586091;40;20075;-63
2022/05/13 07:09:38;;;;;;;12.48;4.55;;;;;;;15.55;59.65;101733.97;3589228;40;20121;-62
2022/05/13 07:12:05;;;;;;;13.90;4.75;;;;;;;15.43;59.97;101694.16;3589961;39;20048;-62
2022/05/13 07:14:31;;;;;;;13.50;4.88;;;;;;;15.65;58.68;101709.81;3589099;39;20109;-64
2022/05/13 07:16:56;;;;;;;16.30;5.45;;;;;;;15.73;58.95;101717.44;3590085;40;20329;-63
2022/05/13 07:19:22;;;;;;;15.98;5.03;;;;;;;15.86;58.57;101726.47;3588689;40;20055;-63
2022/05/13 07:21:48;;;;;;;14.32;4.97;;;;;;;15.87;58.39;101725.47;3589968;40;20056;-63
2022/05/13 07:24:14;;;;;;;11.02;4.78;;;;;;;15.95;58.10;101714.09;3590000;39;20064;-63
2022/05/13 07:26:40;;;;;;;13.68;4.88;;;;;;;16.29;57.84;101726.13;3588698;40;20048;-64
2022/05/13 07:29:06;;;;;;;13.10;4.50;;;;;;;16.52;57.27;101727.19;3591885;39;20079;-63
2022/05/13 07:31:34;;;;;;;11.23;4.80;;;;;;;16.65;55.94;101716.28;3589455;39;20444;-63
2022/05/13 07:34:00;;;;;;;10.82;5.13;;;;;;;16.67;55.59;101703.47;3582510;40;20056;-63
2022/05/13 07:36:26;;;;;;;13.75;5.03;;;;;;;16.93;55.00;101721.44;3587954;40;20052;-64
2022/05/13 07:41:36;;;;;;;12.70;4.57;;;;;;;17.11;54.32;101735.53;3589133;40;20063;-63
2022/05/13 07:44:01;;;;;;;11.38;4.35;;;;;;;17.10;53.54;101724.78;3590716;39;20052;-63
2022/05/13 07:46:27;;;;;;;10.45;4.25;;;;;;;17.09;54.25;101731.19;3590099;39;20048;-65
2022/05/13 07:48:53;;;;;;;11.98;4.55;;;;;;;16.85;53.65;101680.44;3590956;40;20072;-63
2022/05/13 07:51:18;;;;;;;12.23;3.78;;;;;;;17.30;54.05;101736.84;3591631;40;20087;-64
2022/05/13 07:53:44;;;;;;;17.73;5.13;;;;;;;17.25;53.10;101739.91;3590302;40;20126;-64
2022/05/13 07:56:11;;;;;;;8.60;3.85;;;;;;;17.11;53.70;101740.09;3591158;39;20067;-64
2022/05/13 07:58:36;;;;;;;8.30;4.22;;;;;;;17.09;53.41;101732.03;3593652;39;20059;-64
2022/05/13 08:01:03;;;;;;;12.63;3.80;;;;;;;17.32;53.11;101746.63;3590891;39;20067;-65
2022/05/13 08:03:32;;;;;;;11.85;4.05;;;;;;;17.39;51.47;101749.75;3588866;40;20051;-64
2022/05/13 08:06:03;;;;;;;9.95;4.22;;;;;;;17.48;52.38;101738.19;3590726;39;20056;-63
2022/05/13 08:08:36;;;;;;;9.13;3.80;;;;;;;17.63;51.91;101757.88;3585751;40;20048;-66
2022/05/13 08:11:10;;;;;;;9.60;3.85;;;;;;;17.61;51.49;101755.28;3595415;39;20062;-63
2022/05/13 08:13:37;;;;;;;10.25;4.00;;;;;;;17.54;50.91;101753.16;3585210;40;20048;-65
2022/05/13 08:16:09;;;;;;;8.45;3.60;;;;;;;17.57;51.95;101755.63;3592100;40;20052;-65
2022/05/13 08:18:34;;;;;;;12.55;4.07;;;;;;;17.65;51.48;101764.06;3589107;40;20052;-64
2022/05/13 08:21:01;;;;;;;10.75;3.80;;;;;;;17.61;51.25;101752.56;3588442;40;20058;-65
2022/05/13 08:23:28;;;;;;;16.15;4.20;;;;;;;17.74;51.70;101765.22;3589162;40;20040;-64
2022/05/13 08:25:54;;;;;;;15.13;4.00;;;;;;;17.82;51.56;101768.22;3590820;39;20056;-64
2022/05/13 08:28:23;;;;;;;10.20;3.80;;;;;;;17.95;51.41;101760.88;3589965;39;20104;-66
2022/05/13 08:30:49;;;;;;;10.10;3.35;;;;;;;18.15;49.37;101764.75;3591848;39;20352;-64
2022/05/13 08:33:16;;;;;;;10.02;3.33;;;;;;;18.33;49.17;101771.47;3590436;39;20408;-63
2022/05/13 08:35:46;;;;;;;11.05;3.53;;;;;;;18.31;47.77;101775.28;3590183;40;20379;-64
2022/05/13 08:38:15;;;;;;;7.63;3.05;;;;;;;18.40;47.98;101766.38;3590013;39;20067;-64
2022/05/13 08:40:52;;;;;;;11.88;3.53;;;;;;;18.73;46.98;101760.09;3590871;39;20057;-64
2022/05/13 08:43:35;;;;;;;15.38;3.20;;;;;;;18.87;47.05;101753.53;3592834;39;20062;-64
2022/05/13 08:46:21;;;;;;;9.32;3.05;;;;;;;18.94;46.99;101768.38;3589059;40;20047;-64
2022/05/13 08:48:59;;;;;;;9.35;2.90;;;;;;;19.15;46.00;101773.88;3592845;40;20052;-63
2022/05/13 08:55:27;;;;;;;9.32;3.22;;;;;;;19.70;44.37;101766.56;3585593;40;20055;-64
2022/05/13 08:57:57;;;;;;;;;;;;;;;19.76;44.06;101772.47;3589159;40;20062;-64
2022/05/13 09:00:41;;;;;;;10.77;3.20;;;;;;;20.02;44.68;101760.19;3587104;40;19936;-63
2022/05/13 09:03:36;;;;;;;11.43;3.60;;;;;;;20.18;44.07;101766.03;3588530;40;20036;-65
2022/05/13 09:06:22;;;;;;;8.65;2.70;;;;;;;20.27;42.73;101768.97;3589949;40;20044;-62
2022/05/13 09:08:48;;;;;;;9.52;2.97;;;;;;;20.11;42.91;101761.25;3587588;40;20264;-64
2022/05/13 09:11:52;;;;;;;8.45;2.60;;;;;;;20.16;42.93;101762.56;3588415;40;20059;-64
2022/05/13 09:14:48;;;;;;;6.63;2.33;;;;;;;20.43;42.13;101763.88;3585234;40;20060;-64
2022/05/13 09:17:52;;;;;;;8.40;2.70;;;;;;;20.51;41.90;101761.34;3588481;40;20472;-63
2022/05/13 09:20:24;;;;;;;9.45;2.55;;;;;;;20.42;42.45;101756.66;3587407;40;20044;-64
2022/05/13 09:23:01;;;;;;;8.18;3.08;;;;;;;20.42;41.49;101773.06;3588719;40;20084;-64
2022/05/13 09:25:54;;;;;;;7.97;3.05;;;;;;;20.56;41.01;101759.06;3592380;39;20082;-64
2022/05/13 09:28:21;;;;;;;7.40;2.65;;;;;;;20.56;40.69;101774.63;3585445;39;20129;-65
2022/05/13 09:30:54;;;;;;;5.72;2.45;;;;;;;20.25;40.78;101769.09;3586961;40;20044;-64
2022/05/13 09:33:36;;;;;;;7.78;2.60;;;;;;;19.87;41.86;101773.28;3588254;39;20064;-64
2022/05/13 09:36:21;;;;;;;10.45;2.95;;;;;;;19.82;41.50;101786.47;3589341;39;20041;-63
2022/05/13 09:38:50;;;;;;;8.32;3.00;;;;;;;20.14;41.81;101777.38;3588447;40;20390;-64
2022/05/13 09:41:24;;;;;;;9.32;2.70;;;;;;;20.05;41.51;101781.75;3588345;40;20055;-64
2022/05/13 09:44:10;;;;;;;10.70;2.72;;;;;;;20.14;41.85;101783.69;3590417;40;20054;-64
2022/05/13 09:46:47;;;;;;;7.18;2.13;;;;;;;20.05;41.57;101778.16;3588976;40;20422;-64
2022/05/13 09:49:36;;;;;;;7.47;2.58;;;;;;;20.16;40.97;101770.75;3588659;39;20061;-64
2022/05/13 09:52:13;;;;;;;7.00;2.13;;;;;;;20.29;40.84;101788.78;3587425;40;20056;-64
2022/05/13 09:54:46;;;;;;;5.53;2.20;;;;;;;20.01;40.43;101774.81;3589545;40;20056;-64
2022/05/13 09:57:30;;;;;;;8.38;2.10;;;;;;;19.90;40.03;101791.25;3590652;39;20127;-64
2022/05/13 10:00:03;;;;;;;6.45;2.17;;;;;;;19.78;40.61;101795.03;3587956;40;20050;-63
2022/05/13 10:02:29;;;;;;;6.15;2.10;;;;;;;;;;3589381;39;20055;-63
2022/05/13 10:05:19;;;;;;;7.40;2.13;;;;;;;20.31;39.78;101789.53;3590885;39;20048;-62
2022/05/13 10:07:59;;;;;;;14.95;2.55;;;;;;;20.34;39.64;101784.66;3589260;40;20093;-64
2022/05/13 10:16:23;;;;;;;10.35;2.35;;;;;;;20.02;40.57;101792.94;3589271;40;20066;-63
2022/05/13 10:19:01;;;;;;;;;;;;;;;19.69;40.40;101807.59;3587356;39;20044;-64
2022/05/13 10:22:19;;;;;;;8.23;2.40;;;;;;;19.44;41.84;101796.03;3591996;39;20017;-63
2022/05/13 10:25:12;;;;;;;9.32;2.55;;;;;;;19.19;43.11;101801.78;3586353;40;20044;-63
2022/05/13 10:27:54;;;;;;;6.32;2.40;;;;;;;19.13;43.49;101800.44;3589811;40;20060;-63
2022/05/13 10:30:51;;;;;;;7.28;2.15;;;;;;;19.51;43.46;101793.63;3590063;39;20052;-63
2022/05/13 10:33:29;;;;;;;6.47;2.33;;;;;;;19.89;41.08;101795.00;3589251;40;20044;-65
2022/05/13 10:36:09;;;;;;;6.82;2.25;;;;;;;19.85;41.12;101801.69;3589560;40;20051;-64
2022/05/13 10:39:04;;;;;;;9.40;1.92;;;;;;;19.52;41.41;101751.72;3591081;40;20460;-64
2022/05/13 10:41:55;;;;;;;7.75;2.40;;;;;;;19.77;39.06;101796.06;3589204;39;20059;-64
2022/05/13 10:44:43;;;;;;;4.25;2.25;;;;;;;19.83;39.43;101762.78;3590671;39;20049;-65
2022/05/13 10:47:41;;;;;;;4.65;1.77;;;;;;;20.35;38.82;101794.59;3585272;40;20067;-63
2022/05/13 10:50:25;;;;;;;5.53;1.88;;;;;;;20.24;38.80;101771.97;3585657;39;20052;-63
2022/05/13 10:53:26;;;;;;;6.72;1.90;;;;;;;20.08;39.66;101776.03;3587023;40;20084;-63
2022/05/13 10:56:17;;;;;;;7.68;1.90;;;;;;;19.90;40.29;101777.63;3584711;40;20426;-64
2022/05/13 10:59:14;;;;;;;7.15;2.05;;;;;;;19.87;39.48;101772.44;3586219;40;20052;-63
2022/05/13 11:02:36;;;;;;;5.82;2.00;;;;;;;20.00;39.74;101794.94;3587805;40;20056;-63
2022/05/13 11:05:18;;;;;;;3.65;1.83;;;;;;;20.41;40.26;101795.91;3618974;22;20048;-61
2022/05/13 11:08:12;;;;;;;5.35;1.80;;;;;;;20.76;39.72;101753.69;3573176;40;20052;-61
2022/05/13 11:11:11;;;;;;;11.65;2.10;;;;;;;21.22;38.98;101790.53;3579647;40;20052;-60
2022/05/13 11:14:14;;;;;;;7.03;2.00;;;;;;;21.35;38.55;101785.69;3576098;40;20053;-61
2022/05/13 11:17:25;;;;;;;12.70;2.42;;;;;;;21.76;37.40;101797.38;3568962;40;20083;-60
2022/05/13 11:20:11;;;;;;;8.18;2.00;;;;;;;22.17;36.26;101796.22;3566504;40;20082;-62
2022/05/13 11:22:51;;;;;;;9.82;2.15;;;;;;;22.02;36.28;101798.50;3570419;40;20057;-60
2022/05/13 11:25:57;;;;;;;12.23;2.58;;;;;;;21.64;36.07;101798.53;3569427;40;20576;-61
2022/05/13 11:28:52;;;;;;;6.10;2.20;;;;;;;21.15;38.06;101798.38;3570421;40;20312;-60
2022/05/13 11:32:01;;;;;;;10.00;2.30;;;;;;;20.75;38.83;101801.16;3566971;40;20059;-62
2022/05/13 11:34:45;;;;;;;11.60;2.58;;;;;;;20.65;38.74;101792.91;3568745;40;20146;-61
2022/05/13 11:37:15;;;;;;;4.95;2.22;;;;;;;20.71;39.44;101806.03;3570087;40;20071;-62
2022/05/13 11:40:02;;;;;;;5.60;2.03;;;;;;;20.92;38.35;101789.56;3569409;40;20107;-62
2022/05/13 11:46:09;;;;;;;7.03;2.58;;;;;;;20.77;38.53;101794.56;3572928;40;20063;-62
2022/05/13 11:48:46;;;;;;;7.18;2.30;;;;;;;20.49;39.16;101796.13;3567555;40;20329;-62
2022/05/13 11:51:27;;;;;;;9.38;2.72;;;;;;;20.58;39.43;101786.25;3565767;40;20128;-62
2022/05/13 11:54:14;;;;;;;5.75;2.17;;;;;;;21.03;39.38;101788.59;3568285;40;20060;-62
2022/05/13 11:56:43;;;;;;;7.25;2.80;;;;;;;21.01;37.68;101791.47;3571716;40;20273;-61
2022/05/13 11:59:30;;;;;;;8.23;3.00;;;;;;;20.82;38.71;101796.88;3568009;40;20623;-61
2022/05/13 12:02:09;;;;;;;6.88;2.30;;;;;;;20.80;38.63;101799.72;3568056;40;20408;-61
2022/05/13 12:04:59;;;;;;;7.65;2.60;;;;;;;20.81;38.03;101806.06;3569646;40;20053;-61
2022/05/13 12:07:31;;;;;;;7.28;3.20;;;;;;;20.78;39.10;101800.88;3568546;40;20056;-61
2022/05/13 12:10:04;;;;;;;6.35;2.85;;;;;;;20.69;38.49;101797.09;3569081;40;20099;-62
2022/05/13 12:13:10;;;;;;;7.55;2.65;;;;;;;20.58;39.45;101800.78;3569621;40;20060;-61
2022/05/13 12:16:04;;;;;;;6.00;3.25;;;;;;;20.57;38.45;101793.59;3569215;40;20167;-63
2022/05/13 12:19:09;;;;;;;6.93;3.33;;;;;;;20.58;39.27;101783.50;3565174;40;20407;-63
2022/05/13 12:22:03;;;;;;;11.90;2.92;;;;;;;20.62;39.02;101791.31;3559329;40;20049;-61
2022/05/13 12:25:02;;;;;;;8.88;3.20;;;;;;;20.67;39.23;101787.31;3571862;40;20320;-63